Fountain City, Indiana
Current Conditions -  °F | °C
As of 10:53 PM on Saturday 24 Jan 2015 (Local Time) from KMIE Reporting Station
Few Clouds Few Clouds  
Wind Chill: 29°   Ceiling: Unl
Heat Index: 36°   Visibility: 10mi
Dew Point: 30°   Wind: 9mph
Humidity: 79%   Direction: 220°SW
Pressure: 29.71"   Gusts: NA
Location:  39.96°N, 84.92°W
Report Text: KMIE 250353Z AUTO 22008KT 10SM FEW024 02/M01 A2971 RMK AO2 SLP066 T00221011
Loading
Personal Weather Stations






























Interactive Weather Map New forecast layout! Learn more

10-Day Weather Forecast

Advertisements
Track Severe Weather on mobile